Nearby METAR Reports

 

KSDF - Louisville, Kentucky, USA
Distance from station: NNW 19mi, 31km
Updated: Wed, 19-Jun-2019 6:56pm EDT
Light rain, Overcast
Light rain, Overcast
 Wind from W
Wind: W 12 mph , 19 km/h
Temperature: 77°F , 25°C
Dew Point: 70°F , 21°C
Humidity: 79%
Barometer: 29.69 inHg , 1005.4 hPa
Summary: Light rain
Clouds: Overcast
Visibility: 10 miles , 16 km
Cloud details: Few Clouds 3200 ft
Partly cloudy 7000 ft
Mostly cloudy 11000 ft
Overcast 25000 ft
2019/06/19 22:56 KSDF 192256Z 28010KT 10SM -RA FEW032 SCT070 BKN110 OVC250 25/21 A2969 RMK AO2 RAE07B42 TSE09 SLP050 CB DSNT SWTS MOV N P0000 T02500206
KLOU - Louisville/Bowmn, Kentucky, USA
Distance from station: NNW 20mi, 33km
Updated: Wed, 19-Jun-2019 6:53pm EDT
Light rain, Partly cloudy
Light rain, Partly cloudy
 Wind from W
Wind: W 9 mph , 15 km/h
Temperature: 79°F , 26°C
Dew Point: 70°F , 21°C
Humidity: 74%
Barometer: 29.69 inHg , 1005.4 hPa
Summary: Light rain
Clouds: Partly cloudy
Visibility: 10 miles , 16 km
Cloud details: Partly cloudy 11000 ft
2019/06/19 22:53 KLOU 192253Z 28008KT 10SM -RA SCT110 26/21 A2969 RMK AO2 LTG DSNT SW RAB03E23B50 SLP050 P0000 T02560211
 
KFTK - Fort Knox/Godman, Kentucky, USA
Distance from station: W 21mi, 33km
Updated: Wed, 19-Jun-2019 7:17pm EDT
Light rain, Nearby thunderstorm, Overcast
Light rain, Nearby thunderstorm, Overcast
 Wind from WSW
Wind: WSW 6 mph , 9 km/h
Temperature: 70°F , 21°C
Dew Point: 70°F , 21°C
Humidity: 100%
Barometer: 29.71 inHg , 1006.1 hPa
Summary: Light rain, Nearby thunderstorm
Clouds: Overcast
Visibility: 6 miles , 10 km
Cloud details: Few Clouds 1500 ft
Mostly cloudy 5000 ft
Overcast 10000 ft
2019/06/19 23:17 KFTK 192317Z 25005KT 6SM -RA VCTS FEW015 BKN050CB OVC100 21/21 A2971 RMK AO2A SLP058 $
KEKX - Elizabeth, Kentucky, USA
Distance from station: SW 21mi, 34km
Updated: Wed, 19-Jun-2019 7:15pm EDT
Overcast
Overcast
 Wind from WNW
Wind: WNW 13 mph , 20 km/h, Gust: 18 mph , 30 km/h
Temperature: 77°F , 25°C
Dew Point: 72°F , 22°C
Humidity: 83%
Barometer: 29.71 inHg , 1006.1 hPa
Clouds: Overcast
Visibility: 10 miles , 16 km
Cloud details: Partly cloudy 2100 ft
Mostly cloudy 4600 ft
Overcast 6000 ft
2019/06/19 23:15 KEKX 192315Z AUTO 30011G16KT 10SM SCT021 BKN046 OVC060 25/22 A2971 RMK AO2 LTG DSNT N AND NW T02510215
 
K6I2 - Springfield, Kentucky, USA
Distance from station: SE 28mi, 44km
Updated: Wed, 19-Jun-2019 7:10pm EDT
Few Clouds
Few Clouds
 Wind from SSW
Wind: SSW 5 mph , 7 km/h
Temperature: 79°F , 26°C
Dew Point: 73°F , 23°C
Humidity: 84%
Barometer: 29.72 inHg , 1006.4 hPa
Clouds: Few Clouds
Visibility: 10 miles , 16 km
Cloud details: Few Clouds 5500 ft
2019/06/19 23:10 K6I2 192310Z AUTO 21004KT 10SM FEW055 26/23 A2972 RMK AO2
KFFT - Frankfort, Kentucky, USA
Distance from station: ENE 42mi, 67km
Updated: Wed, 19-Jun-2019 6:53pm EDT
Clear
Clear
 Wind from SW
Wind: SW 13 mph , 20 km/h, Gust: 20 mph , 31 km/h
Temperature: 82°F , 28°C
Heat Index: 86°F , 30°C
Dew Point: 72°F , 22°C
Humidity: 70%
Barometer: 29.68 inHg , 1005.1 hPa
Clouds: Clear
Visibility: 10 miles , 16 km
2019/06/19 22:53 KFFT 192253Z AUTO 23011G17KT 10SM CLR 28/22 A2968 RMK AO2 LTG DSNT N SLP042 T02780217